Latest Weather Observations for Coolangatta

IDN60801

Issued at 6:32 pm EDT Sunday 15 December 2019 (issued every 10 minutes, with the page automatically refreshed every 10 minutes)

About weather observations | Map of weather stations | Latest weather observations for NSW | Other Formats
Station Details ID: 040717 Name: COOLANGATTA Lat: -28.17 Lon: 153.51 Height: 4.0 m
Data from the previous 72 hours. | See also: Recent months at Coolangatta

Observations at Coolangatta are collected in the Queensland time zone, which does not include daylight savings during the summer period. Therefore 'Rain since 9am' totals and other values are based on the Queensland time zone.

Date/Time
EDT
Temp
°C
App
Temp
°C
Dew
Point
°C
Rel
Hum
%
Delta-T
°C
Wind Press
QNH
hPa
Press
MSL
hPa
Rain since
9am
mm
Dir  Spd
km/h
Gust
km/h
Spd
kts
Gust
kts
15/06:30pm 25.3 25.4 21.8 81 2.3 N 24 30 13 16 1007.2 1007.1 0.0
15/06:00pm 25.7 26.5 21.8 79 2.6 N 20 28 11 15 1007.1 1007.0 0.0
15/05:30pm 26.1 27.0 22.0 78 2.7 N 20 30 11 16 1006.9 1006.8 0.0
15/05:00pm 26.4 26.9 22.0 77 3.0 N 22 28 12 15 1007.0 1006.9 0.0
15/04:30pm 27.5 28.3 22.4 73 3.4 N 22 28 12 15 1006.9 1006.8 0.0
15/04:00pm 26.6 26.8 22.0 76 3.1 N 24 32 13 17 1007.1 1007.0 0.0
15/03:30pm 27.3 27.4 22.5 75 3.2 N 26 33 14 18 1007.2 1007.1 0.0
15/03:00pm 27.6 27.2 22.3 73 3.6 N 28 37 15 20 1007.3 1007.2 0.0
15/02:30pm 27.6 27.2 22.3 73 3.6 N 28 35 15 19 1007.7 1007.6 0.0
15/02:00pm 28.1 28.1 23.0 74 3.5 N 28 37 15 20 1008.1 1008.0 0.0
15/01:30pm 27.5 27.0 22.2 73 3.6 N 28 35 15 19 1008.4 1008.3 0.0
15/01:00pm 28.0 27.7 22.5 72 3.7 N 28 37 15 20 1008.8 1008.7 0.0
15/12:30pm 27.9 27.9 22.4 72 3.7 N 26 35 14 19 1009.0 1008.9 0.0
15/12:00pm 27.8 27.6 22.7 74 3.5 N 28 35 15 19 1009.3 1009.2 0.0
15/11:30am 27.5 27.4 22.2 73 3.6 N 26 33 14 18 1009.6 1009.5 0.0
15/11:00am 26.5 25.7 21.7 75 3.2 N 28 37 15 20 1009.8 1009.7 0.0
15/10:30am 26.4 26.5 21.8 76 3.1 N 24 32 13 17 1010.1 1010.0 0.0
15/10:00am 25.9 25.9 21.6 77 2.9 N 24 30 13 16 1010.0 1009.9 0.0
15/09:30am 25.7 25.8 21.8 79 2.6 N 24 30 13 16 1010.1 1010.0 0.0
15/09:00am 25.9 26.2 22.2 80 2.5 N 24 30 13 16 1010.3 1010.2 0.0
15/08:30am 25.4 25.8 21.7 80 2.5 N 22 28 12 15 1010.2 1010.1 0.0
15/08:00am 24.4 25.4 21.7 85 1.8 N 19 26 10 14 1010.2 1010.1 0.0
15/07:30am 24.2 25.3 21.9 87 1.5 NNW 19 24 10 13 1010.2 1010.1 0.0
15/07:00am 23.9 25.4 22.0 89 1.3 N 17 20 9 11 1010.0 1009.9 0.0
15/06:30am 23.5 25.8 22.1 92 0.9 NNW 13 17 7 9 1009.8 1009.7 0.0
15/06:00am 23.4 25.7 22.0 92 0.9 NNW 13 17 7 9 1009.6 1009.5 0.0
15/05:30am 23.5 24.6 21.9 91 1.1 NNW 19 22 10 12 1009.5 1009.4 0.0
15/05:00am 23.7 24.9 22.1 91 1.1 N 19 24 10 13 1009.3 1009.2 0.0
15/04:31am 23.9 25.8 22.0 89 1.3 N 15 20 8 11 1009.1 1009.0 0.0
15/04:30am 23.9 25.8 22.0 89 1.3 N 15 20 8 11 1009.1 1009.0 0.0
15/04:00am 24.1 26.7 22.0 88 1.4 N 11 17 6 9 1009.1 1009.0 0.0
15/03:34am 24.0 26.6 21.9 88 1.4 N 11 15 6 8 1009.1 1009.0 0.0
15/03:30am 24.0 26.6 21.9 88 1.4 N 11 13 6 7 1009.1 1009.0 0.0
15/03:00am 23.9 26.7 21.6 87 1.5 N 9 13 5 7 1009.1 1009.0 0.0
15/02:30am 24.0 26.0 21.5 86 1.7 N 13 17 7 9 1009.0 1008.9 0.0
15/02:00am 24.3 26.1 21.2 83 2.0 N 13 15 7 8 1009.3 1009.2 0.0
15/01:30am 24.6 26.5 21.3 82 2.2 N 13 17 7 9 1009.4 1009.3 0.0
15/01:00am 24.4 25.8 21.1 82 2.2 N 15 19 8 10 1009.5 1009.4 0.0
15/12:30am 24.4 25.8 21.1 82 2.2 NNW 15 20 8 11 1009.8 1009.7 0.0
15/12:00am 24.8 26.2 21.1 80 2.4 NNW 15 20 8 11 1010.0 1009.9 0.0
 
Date/Time
EDT
Temp
°C
App
Temp
°C
Dew
Point
°C
Rel
Hum
%
Delta-T
°C
Wind Press
QNH
hPa
Press
MSL
hPa
Rain since
9am
mm
Dir  Spd
km/h
Gust
km/h
Spd
kts
Gust
kts
14/11:30pm 24.6 25.4 21.3 82 2.2 N 19 22 10 12 1010.3 1010.2 0.0
14/11:00pm 24.7 25.9 21.4 82 2.2 N 17 24 9 13 1010.5 1010.4 0.0
14/10:30pm 24.4 25.5 21.3 83 2.0 N 17 20 9 11 1010.3 1010.2 0.0
14/10:00pm 24.6 25.2 21.3 82 2.2 N 20 28 11 15 1010.1 1010.0 0.0
14/09:30pm 24.3 24.9 21.4 84 1.9 N 20 26 11 14 1009.8 1009.7 0.0
14/09:00pm 24.4 25.8 21.9 86 1.7 N 17 24 9 13 1009.6 1009.5 0.0
14/08:30pm 24.0 26.1 21.7 87 1.5 N 13 17 7 9 1009.1 1009.0 0.0
14/08:00pm 24.3 26.8 21.8 86 1.7 N 11 15 6 8 1009.0 1008.9 0.0
14/07:30pm 24.4 26.1 21.7 85 1.8 N 15 19 8 10 1008.5 1008.4 0.0
14/07:00pm 24.7 26.4 21.6 83 2.1 N 15 20 8 11 1008.2 1008.1 0.0
14/06:30pm 25.1 26.3 21.4 80 2.4 N 17 22 9 12 1008.0 1007.9 0.0
14/06:00pm 25.6 26.6 21.1 76 3.0 N 17 20 9 11 1007.8 1007.7 0.0
14/05:30pm 26.2 27.6 21.0 73 3.4 N 15 20 8 11 1007.7 1007.6 0.0
14/05:00pm 26.6 27.6 21.1 72 3.6 N 17 22 9 12 1007.7 1007.6 0.0
14/04:30pm 26.5 27.5 21.0 72 3.6 N 17 22 9 12 1007.7 1007.6 0.0
14/04:00pm 27.0 28.3 21.7 73 3.5 NNE 17 24 9 13 1007.8 1007.7 0.0
14/03:30pm 26.8 27.6 21.3 72 3.7 NE 19 26 10 14 1008.1 1008.0 0.0
14/03:00pm 26.9 27.6 21.2 71 3.8 NE 19 24 10 13 1008.3 1008.2 0.0
14/02:30pm 26.9 27.6 21.2 71 3.8 NE 19 26 10 14 1008.5 1008.4 0.0
14/02:00pm 27.1 27.7 21.4 71 3.8 NE 20 28 11 15 1008.7 1008.6 0.0
14/01:30pm 26.4 27.3 21.6 75 3.2 NE 19 26 10 14 1009.0 1008.9 0.0
14/01:00pm 26.2 26.6 21.0 73 3.4 NNE 20 28 11 15 1009.5 1009.4 0.0
14/12:30pm 26.0 25.9 20.8 73 3.4 NNE 22 28 12 15 1009.8 1009.7 0.0
14/12:00pm 26.0 26.4 20.6 72 3.5 NE 19 24 10 13 1010.2 1010.1 0.0
14/11:30am 25.3 25.3 20.1 73 3.4 NNE 20 26 11 14 1010.4 1010.3 0.0
14/11:00am 25.0 24.4 19.8 73 3.4 N 22 28 12 15 1010.4 1010.3 0.0
14/10:30am 24.9 25.3 19.9 74 3.2 NNE 17 20 9 11 1010.7 1010.6 0.0
14/10:00am 25.0 25.6 20.3 75 3.1 NE 17 19 9 10 1011.0 1010.9 21.8
14/09:30am 24.6 25.5 19.2 72 3.5 NNE 13 17 7 9 1011.3 1011.2 21.8
14/09:00am 24.3 25.9 19.1 73 3.3 NNE 9 15 5 8 1011.6 1011.5 21.8
14/08:30am 23.7 27.1 19.4 77 2.8 CALM 0 0 0 0 1011.5 1011.4 21.8
14/08:00am 22.6 24.8 19.2 81 2.2 SSE 6 9 3 5 1011.5 1011.4 21.8
14/07:30am 21.5 23.6 18.9 85 1.6 SSE 6 11 3 6 1011.4 1011.3 21.8
14/07:00am 20.7 23.8 19.5 93 0.8 SSE 2 7 1 4 1011.2 1011.1 21.8
14/06:30am 20.1 22.7 19.3 95 0.5 S 4 6 2 3 1010.8 1010.7 21.8
14/06:00am 19.2 20.9 18.4 95 0.5 S 7 9 4 5 1010.5 1010.4 21.8
14/05:39am 18.8 19.9 18.0 95 0.5 SSE 9 11 5 6 1010.3 1010.2 21.8
14/05:30am 18.9 21.4 18.1 95 0.5 S 2 9 1 5 1010.3 1010.2 21.8
14/05:15am 19.0 21.9 18.2 95 0.5 CALM 0 0 0 0 1010.2 1010.1 21.8
14/05:00am 19.5 22.6 18.7 95 0.5 CALM 0 0 0 0 1010.2 1010.1 21.8
14/04:30am 19.6 21.6 18.8 95 0.5 SSE 6 7 3 4 1010.3 1010.2 21.8
14/04:00am 19.9 23.2 19.1 95 0.5 CALM 0 0 0 0 1010.5 1010.4 21.8
14/03:41am 19.9 22.1 19.2 96 0.4 SSW 6 7 3 4 1010.3 1010.2 21.8
14/03:30am 20.1 22.4 19.4 96 0.4 SSW 6 7 3 4 1010.5 1010.4 21.8
14/03:22am 19.8 22.7 19.0 95 0.5 SW 2 7 1 4 1010.6 1010.5 21.8
14/03:00am 19.9 22.8 19.1 95 0.5 SW 2 9 1 5 1010.8 1010.7 21.8
14/02:42am 19.9 22.1 19.1 95 0.5 SSW 6 7 3 4 1010.8 1010.7 21.8
14/02:30am 19.6 21.5 18.6 94 0.6 SSW 6 7 3 4 1010.7 1010.6 21.8
14/02:14am 19.7 22.8 18.7 94 0.6 CALM 0 0 0 0 1010.7 1010.6 21.8
14/02:00am 19.8 23.0 18.8 94 0.6 CALM 0 0 0 0 1010.6 1010.5 21.8
14/01:30am 20.1 23.3 18.8 92 0.8 CALM 0 0 0 0 1010.9 1010.8 21.8
14/01:00am 20.9 24.5 19.7 93 0.8 CALM 0 0 0 0 1011.3 1011.2 21.8
14/12:30am 20.9 24.4 19.6 92 0.8 CALM 0 0 0 0 1011.7 1011.6 21.8
14/12:00am 20.9 23.4 19.9 94 0.6 SW 6 7 3 4 1011.9 1011.8 21.8
 
Date/Time
EDT
Temp
°C
App
Temp
°C
Dew
Point
°C
Rel
Hum
%
Delta-T
°C
Wind Press
QNH
hPa
Press
MSL
hPa
Rain since
9am
mm
Dir  Spd
km/h
Gust
km/h
Spd
kts
Gust
kts
13/11:30pm 20.6 22.8 19.6 94 0.6 WSW 7 11 4 6 1011.8 1011.7 21.8
13/11:00pm 19.9 21.7 18.4 91 0.9 W 6 7 3 4 1011.7 1011.6 21.8
13/10:30pm 19.8 21.2 17.9 89 1.2 W 7 7 4 4 1011.7 1011.6 21.8
13/10:00pm 20.5 22.2 18.6 89 1.2 W 7 9 4 5 1011.6 1011.5 21.8
13/09:30pm 20.7 22.2 18.8 89 1.2 W 9 11 5 6 1011.5 1011.4 21.8
13/09:00pm 20.8 22.2 18.6 87 1.4 WNW 9 11 5 6 1011.4 1011.3 21.8
13/08:30pm 21.0 23.4 18.8 87 1.4 NW 4 9 2 5 1011.2 1011.1 21.8
13/08:00pm 21.7 23.2 18.9 84 1.8 NNW 9 11 5 6 1010.8 1010.7 21.8
13/07:30pm 22.0 23.4 18.6 81 2.1 NNW 9 13 5 7 1011.1 1011.0 21.8
13/07:00pm 22.5 23.9 18.7 79 2.4 NW 9 11 5 6 1010.5 1010.4 21.8
13/06:30pm 23.1 23.0 18.8 77 2.7 N 17 22 9 12 1010.2 1010.1 21.8
13/06:00pm 23.5 24.3 19.0 76 2.9 NNE 13 15 7 8 1010.3 1010.2 21.8
13/05:30pm 23.2 24.5 18.5 75 3.0 NE 9 13 5 7 1010.7 1010.6 21.8
13/05:00pm 23.9 24.7 19.0 74 3.1 NE 13 20 7 11 1010.0 1009.9 21.8
13/04:30pm 23.2 23.7 19.2 78 2.5 ENE 15 19 8 10 1010.5 1010.4 21.8
13/04:16pm 22.5 23.7 19.1 81 2.2 ENE 11 17 6 9 1010.8 1010.7 21.8
13/04:00pm 22.0 24.2 19.5 86 1.6 SE 7 13 4 7 1010.3 1010.2 21.8
13/03:47pm 22.2 23.7 19.7 86 1.6 SE 11 17 6 9 1010.6 1010.5 21.8
13/03:30pm 21.7 22.3 18.7 83 1.9 ESE 13 20 7 11 1010.8 1010.7 21.6
13/03:00pm 21.4 21.0 19.3 88 1.3 E 20 32 11 17 1010.7 1010.6 21.6
13/02:37pm 20.6 17.4 18.5 88 1.3 E 33 44 18 24 1010.9 1010.8 21.4
13/02:30pm 21.2 18.1 18.8 86 1.5 ENE 33 46 18 25 1010.6 1010.5 21.2
13/02:19pm 22.3 20.6 19.7 85 1.7 ENE 28 33 15 18 1010.4 1010.3 21.0
13/02:05pm 21.9 19.3 19.5 86 1.5 E 32 43 17 23 1010.8 1010.7 21.0
13/02:00pm 21.5 18.5 18.7 84 1.8 E 32 43 17 23 1010.8 1010.7 21.0
13/01:58pm 21.5 18.5 18.7 84 1.8 E 32 43 17 23 1010.8 1010.7 21.0
13/01:54pm 21.7 19.3 19.1 85 1.6 E 30 41 16 22 1010.6 1010.5 21.0
13/01:43pm 21.9 21.6 20.4 91 1.0 ESE 22 28 12 15 1010.8 1010.7 21.0
13/01:33pm 21.8 22.6 20.6 93 0.8 ESE 17 30 9 16 1011.0 1010.9 21.0
13/01:31pm 21.8 22.6 20.6 93 0.8 ESE 17 30 9 16 1011.2 1011.1 21.0
13/01:30pm 21.8 23.0 20.6 93 0.8 ESE 15 30 8 16 1011.2 1011.1 21.0
13/01:12pm 22.1 22.9 20.6 91 1.0 ESE 17 24 9 13 1011.0 1010.9 20.8
13/01:11pm 22.0 23.1 20.5 91 1.0 ESE 15 24 8 13 1011.0 1010.9 20.4
13/01:00pm 22.1 23.3 20.6 91 1.0 ESE 15 20 8 11 1011.2 1011.1 20.2
13/12:43pm 21.9 22.8 20.9 94 0.7 ESE 17 22 9 12 1011.3 1011.2 20.2
13/12:30pm 21.6 21.9 20.4 93 0.8 SE 19 28 10 15 1011.2 1011.1 20.0
13/12:22pm 21.9 22.2 20.5 92 0.9 SE 19 26 10 14 1011.2 1011.1 19.2
13/12:18pm 22.6 23.8 21.4 93 0.8 SSE 17 26 9 14 1011.1 1011.0 17.8
13/12:12pm 23.0 24.9 22.0 94 0.7 S 15 20 8 11 1011.1 1011.0 13.0
13/12:10pm 23.1 24.9 21.9 93 0.8 SSW 15 20 8 11 1011.1 1011.0 12.8
13/12:00pm 23.2 26.2 22.0 93 0.8 SSW 9 15 5 8 1011.1 1011.0 9.4
13/11:57am 23.4 27.1 22.2 93 0.8 SW 6 9 3 5 1011.2 1011.1 9.2
13/11:51am 23.3 27.7 22.1 93 0.8 WSW 2 7 1 4 1011.3 1011.2 8.8
13/11:34am 23.2 26.8 22.4 95 0.5 W 7 11 4 6 1011.3 1011.2 8.6
13/11:30am 23.2 26.8 22.4 95 0.5 WSW 7 11 4 6 1011.3 1011.2 8.6
13/11:27am 23.2 26.8 22.4 95 0.5 SW 7 9 4 5 1011.2 1011.1 8.6
13/11:19am 22.8 25.8 22.0 95 0.5 W 9 13 5 7 1011.2 1011.1 8.6
13/11:17am 22.8 25.8 22.0 95 0.5 W 9 13 5 7 1011.2 1011.1 8.6
13/11:11am 22.7 25.6 21.7 94 0.7 W 9 17 5 9 1011.2 1011.1 7.8
13/11:00am 22.8 25.0 21.8 94 0.7 SW 13 20 7 11 1011.3 1011.2 6.6
13/10:55am 22.7 24.7 21.5 93 0.8 SW 13 20 7 11 1011.3 1011.2 5.8
13/10:52am 22.7 24.7 21.5 93 0.8 SW 13 20 7 11 1011.3 1011.2 5.6
13/10:42am 23.0 26.0 22.0 94 0.7 WSW 9 13 5 7 1011.5 1011.4 3.6
13/10:41am 23.0 26.0 22.0 94 0.7 WSW 9 13 5 7 1011.5 1011.4 3.6
13/10:39am 23.1 26.6 22.1 94 0.7 WSW 7 13 4 7 1011.5 1011.4 3.0
13/10:31am 23.1 26.6 22.1 94 0.7 SSW 7 9 4 5 1011.4 1011.3 3.0
13/10:30am 23.1 26.6 22.1 94 0.7 SSW 7 9 4 5 1011.4 1011.3 3.0
13/10:00am 23.1 26.9 21.7 92 0.9 SSW 4 9 2 5 1011.5 1011.4 3.6
13/09:44am 23.4 27.0 22.0 92 0.9 S 6 9 3 5 1011.6 1011.5 1.6
13/09:30am 23.3 26.2 21.7 91 1.1 SW 9 13 5 7 1011.6 1011.5 0.8
13/09:00am 23.1 25.0 21.4 90 1.1 S 13 17 7 9 1011.5 1011.4 0.6
13/08:33am 23.3 25.3 21.6 90 1.1 SE 13 17 7 9 1011.7 1011.6 0.6
13/08:30am 23.2 25.2 21.5 90 1.1 SE 13 17 7 9 1011.7 1011.6 0.6
13/08:14am 23.3 24.9 21.4 89 1.3 SE 15 19 8 10 1011.6 1011.5 0.6
13/08:04am 23.4 24.4 21.1 87 1.5 SE 17 20 9 11 1011.6 1011.5 0.6
13/08:00am 23.6 24.7 21.3 87 1.5 ESE 17 19 9 10 1011.6 1011.5 0.6
13/07:45am 24.3 27.7 21.6 85 1.8 SE 6 11 3 6 1011.7 1011.6 0.6
13/07:30am 24.1 28.5 21.4 85 1.8 CALM 0 0 0 0 1011.5 1011.4 0.6
13/07:00am 24.0 28.7 21.9 88 1.4 CALM 0 0 0 0 1011.2 1011.1 0.6
13/06:30am 23.7 28.4 22.0 90 1.1 CALM 0 0 0 0 1010.9 1010.8 0.6
13/06:00am 23.5 27.3 21.6 89 1.3 WNW 4 9 2 5 1010.5 1010.4 0.6
13/05:30am 23.5 26.7 21.6 89 1.3 NW 7 13 4 7 1010.3 1010.2 0.6
13/05:00am 23.5 26.8 21.8 90 1.1 WNW 7 9 4 5 1010.3 1010.2 0.6
13/04:30am 24.0 27.1 22.1 89 1.3 N 9 13 5 7 1010.3 1010.2 0.6
13/04:00am 24.2 27.3 22.1 88 1.4 N 9 11 5 6 1010.2 1010.1 0.6
13/03:55am 24.2 27.5 21.9 87 1.5 N 7 9 4 5 1010.2 1010.1 0.6
13/03:37am 24.4 27.4 21.9 86 1.7 N 9 11 5 6 1010.3 1010.2 0.4
13/03:30am 24.5 27.6 21.4 83 2.0 N 7 11 4 6 1010.4 1010.3 0.0
13/03:00am 24.4 27.5 21.5 84 1.9 NNE 7 11 4 6 1010.2 1010.1 0.0
13/02:30am 24.5 26.9 21.6 84 1.9 N 11 13 6 7 1010.4 1010.3 0.0
13/02:00am 24.5 27.0 21.8 85 1.8 N 11 13 6 7 1010.4 1010.3 0.0
13/01:30am 24.7 26.5 21.8 84 1.9 N 15 17 8 9 1010.7 1010.6 0.0
13/01:00am 24.8 27.3 21.7 83 2.1 NNW 11 17 6 9 1011.4 1011.3 0.0
13/12:30am 24.7 27.5 21.6 83 2.1 NNW 9 13 5 7 1011.7 1011.6 0.0
13/12:00am 24.6 26.6 21.5 83 2.1 N 13 15 7 8 1011.5 1011.4 0.0
 
Date/Time
EDT
Temp
°C
App
Temp
°C
Dew
Point
°C
Rel
Hum
%
Delta-T
°C
Wind Press
QNH
hPa
Press
MSL
hPa
Rain since
9am
mm
Dir  Spd
km/h
Gust
km/h
Spd
kts
Gust
kts
12/11:30pm 24.8 27.4 21.9 84 1.9 N 11 15 6 8 1012.0 1011.9 0.0
12/11:00pm 25.2 26.6 21.9 82 2.2 N 17 22 9 12 1012.2 1012.1 0.0
12/10:30pm 25.2 27.5 22.1 83 2.1 N 13 15 7 8 1012.1 1012.0 0.0
12/10:00pm 24.9 28.5 22.0 84 1.9 NNW 6 7 3 4 1012.1 1012.0 0.0
12/09:30pm 24.9 28.0 22.2 85 1.8 N 9 11 5 6 1011.4 1011.3 0.0
12/09:00pm 25.0 27.6 21.9 83 2.1 NNW 11 15 6 8 1011.3 1011.2 0.0
12/08:30pm 25.2 26.1 21.5 80 2.5 N 19 26 10 14 1011.1 1011.0 0.0
12/08:00pm 25.0 26.8 21.9 83 2.1 NE 15 22 8 12 1010.1 1010.0 0.0

Other formats

Comma delimited format used in spreadsheet applications
http://www.bom.gov.au/fwo/IDN60801/IDN60801.94592.axf

JavaScript Object Notation format (JSON) in row-major order
http://www.bom.gov.au/fwo/IDN60801/IDN60801.94592.json

Data quality

Most of these data are generated automatically and are frequently updated. Quality checks on data are not normally performed. It is possible for incorrect values to appear. Refer to information at About Latest Weather Observations and please check the disclaimer before using these data.